Time;durP1;ratioP1;P1;durP2;ratioP2;P2;SDS_P1;SDS_P2;PMS_P1;PMS_P2;Temp;Humidity;BMP_temperature;BMP_pressure;BME280_temperature;BME280_humidity;BME280_pressure;Samples;Min_cycle;Max_cycle;Signal;HPM_P1;HPM_P2
2022/07/16 00:02:20;;;;;;;15.30;3.03;;;;;;;13.72;62.54;99884.81;5107817;28;20034;-57
2022/07/16 00:04:45;;;;;;;11.43;2.95;;;;;;;13.70;62.00;99889.63;5116702;27;20019;-58
2022/07/16 00:07:11;;;;;;;13.48;3.10;;;;;;;13.69;62.56;99888.00;5117350;27;20027;-57
2022/07/16 00:09:36;;;;;;;10.07;4.25;;;;;;;13.60;63.12;99887.59;5122264;27;20035;-58
2022/07/16 00:12:02;;;;;;;13.82;4.45;;;;;;;13.34;64.57;99881.81;5118573;27;20023;-56
2022/07/16 00:14:27;;;;;;;15.68;3.28;;;;;;;13.15;64.31;99883.91;5121774;27;20500;-56
2022/07/16 00:16:53;;;;;;;11.77;3.00;;;;;;;13.17;64.29;99884.47;5115107;27;20369;-56
2022/07/16 00:19:19;;;;;;;10.77;3.08;;;;;;;13.11;64.37;99880.06;5126592;27;20469;-56
2022/07/16 00:21:46;;;;;;;10.05;3.20;;;;;;;13.20;64.26;99874.28;5119613;27;20097;-60
2022/07/16 00:24:11;;;;;;;15.88;3.10;;;;;;;13.00;64.62;99872.84;5118767;27;20034;-59
2022/07/16 00:26:37;;;;;;;7.50;2.92;;;;;;;13.04;64.78;99876.72;5121457;27;20027;-59
2022/07/16 00:29:02;;;;;;;10.50;3.58;;;;;;;13.01;65.72;99882.59;5119873;27;20074;-57
2022/07/16 00:31:28;;;;;;;12.90;3.88;;;;;;;13.11;65.51;99882.75;5117150;28;20307;-57
2022/07/16 00:33:53;;;;;;;14.57;3.78;;;;;;;12.73;67.13;99873.47;5117524;28;20378;-58
2022/07/16 00:36:18;;;;;;;10.55;3.40;;;;;;;12.45;66.68;99868.06;5116374;28;20081;-58
2022/07/16 00:38:44;;;;;;;9.82;3.47;;;;;;;12.40;67.09;99866.09;5117290;28;20035;-58
2022/07/16 00:41:16;;;;;;;16.00;3.30;;;;;;;12.53;66.40;99865.03;5114129;28;20077;-59
2022/07/16 00:44:00;;;;;;;10.55;3.55;;;;;;;12.71;65.95;99864.81;5108724;28;20077;-58
2022/07/16 00:46:25;;;;;;;14.93;3.30;;;;;;;12.85;65.60;99867.22;5099790;28;20114;-58
2022/07/16 00:48:51;;;;;;;6.75;2.60;;;;;;;12.80;65.45;99865.25;5118068;28;20027;-58
2022/07/16 00:51:16;;;;;;;11.13;3.67;;;;;;;12.83;66.27;99872.00;5105489;28;20462;-58
2022/07/16 00:53:42;;;;;;;6.45;3.05;;;;;;;12.77;66.07;99870.31;5097936;28;20038;-58
2022/07/16 00:56:09;;;;;;;9.98;3.00;;;;;;;12.69;66.25;99864.25;5099842;28;20016;-58
2022/07/16 00:58:37;;;;;;;9.65;3.17;;;;;;;12.60;66.07;99865.69;5121858;28;20027;-58
2022/07/16 01:01:02;;;;;;;8.10;3.20;;;;;;;12.47;66.74;99865.97;5122985;28;20023;-58
2022/07/16 01:03:28;;;;;;;7.35;2.92;;;;;;;12.44;66.90;99866.47;5112321;28;20080;-57
2022/07/16 01:05:53;;;;;;;9.02;3.10;;;;;;;12.34;67.69;99860.88;5074789;28;20034;-57
2022/07/16 01:08:18;;;;;;;7.90;3.05;;;;;;;12.30;67.38;99858.69;5100384;28;20073;-58
2022/07/16 01:10:44;;;;;;;9.50;3.03;;;;;;;12.19;67.94;99854.13;5097323;28;20477;-57
2022/07/16 01:13:10;;;;;;;8.77;3.05;;;;;;;12.30;67.79;99853.31;5107329;28;20039;-56
2022/07/16 01:15:36;;;;;;;10.32;3.35;;;;;;;12.17;67.87;99856.25;5077054;28;20043;-57
2022/07/16 01:18:01;;;;;;;14.93;3.92;;;;;;;12.12;68.31;99858.00;5112696;28;20274;-58
2022/07/16 01:20:27;;;;;;;14.48;3.47;;;;;;;12.08;68.50;99852.28;5121893;28;20030;-57
2022/07/16 01:22:53;;;;;;;9.05;3.38;;;;;;;12.00;69.09;99858.03;5115890;28;20030;-57
2022/07/16 01:25:18;;;;;;;9.45;3.55;;;;;;;11.97;69.42;99862.00;5116618;28;20050;-56
2022/07/16 01:27:44;;;;;;;8.20;3.15;;;;;;;12.08;69.18;99863.88;5121660;27;20039;-57
2022/07/16 01:30:09;;;;;;;9.88;3.20;;;;;;;12.07;69.63;99864.09;5119955;27;20019;-57
2022/07/16 01:32:36;;;;;;;9.27;3.17;;;;;;;11.94;69.79;99861.66;5114381;27;20389;-58
2022/07/16 01:35:02;;;;;;;6.60;3.80;;;;;;;11.85;69.87;99859.28;5122658;27;20032;-57
2022/07/16 01:37:27;;;;;;;10.38;3.67;;;;;;;12.04;71.49;99859.19;5105444;27;20019;-58
2022/07/16 01:39:53;;;;;;;15.45;3.70;;;;;;;12.06;71.03;99859.78;5113907;27;20558;-58
2022/07/16 01:42:18;;;;;;;10.45;3.30;;;;;;;12.05;69.13;99864.31;5122367;27;20041;-58
2022/07/16 01:44:44;;;;;;;8.88;3.67;;;;;;;11.95;69.78;99861.41;5117013;27;20400;-57
2022/07/16 01:47:10;;;;;;;5.82;3.33;;;;;;;12.07;69.82;99861.41;5124616;27;20064;-57
2022/07/16 01:49:37;;;;;;;11.32;3.22;;;;;;;12.07;69.43;99859.53;5120038;27;20096;-57
2022/07/16 01:52:09;;;;;;;11.68;3.38;;;;;;;12.06;69.80;99854.41;5103519;27;20422;-57
2022/07/16 01:54:36;;;;;;;10.90;3.42;;;;;;;11.76;70.45;99849.97;5124234;27;20370;-57
2022/07/16 01:57:01;;;;;;;12.38;3.72;;;;;;;11.85;70.59;99858.47;5123714;27;20052;-57
2022/07/16 01:59:27;;;;;;;9.90;3.83;;;;;;;11.99;70.37;99848.34;5120901;27;20023;-57
2022/07/16 02:01:52;;;;;;;18.33;3.90;;;;;;;11.98;69.80;99858.28;5120604;27;20028;-57
2022/07/16 02:04:18;;;;;;;9.75;3.50;;;;;;;11.86;70.25;99855.59;5106140;27;20054;-57
2022/07/16 02:06:43;;;;;;;8.80;3.53;;;;;;;11.83;70.65;99853.38;5123866;27;20442;-57
2022/07/16 02:09:08;;;;;;;10.20;3.38;;;;;;;11.90;70.96;99847.88;5119403;27;20036;-57
2022/07/16 02:11:34;;;;;;;28.45;4.22;;;;;;;11.84;70.07;99849.63;5120881;27;20035;-57
2022/07/16 02:13:59;;;;;;;13.27;3.72;;;;;;;11.95;70.79;99852.56;5118630;27;20023;-57
2022/07/16 02:16:25;;;;;;;8.20;3.97;;;;;;;11.78;70.49;99847.88;5119778;27;20039;-57
2022/07/16 02:18:50;;;;;;;7.43;3.60;;;;;;;11.66;72.29;99849.75;5120530;27;20062;-57
2022/07/16 02:21:15;;;;;;;12.20;4.18;;;;;;;11.76;72.21;99849.97;5120994;27;20031;-57
2022/07/16 02:23:41;;;;;;;12.75;4.00;;;;;;;11.65;71.30;99850.78;5114970;27;20359;-57
2022/07/16 02:26:06;;;;;;;14.05;3.58;;;;;;;11.56;71.56;99852.22;5116557;27;20031;-58
2022/07/16 02:28:32;;;;;;;12.32;4.07;;;;;;;11.66;71.12;99852.44;5106904;27;20114;-58
2022/07/16 02:30:57;;;;;;;15.90;3.78;;;;;;;11.63;71.30;99850.19;5116096;27;20047;-57
2022/07/16 02:33:23;;;;;;;10.85;3.63;;;;;;;11.57;71.42;99849.28;5114844;27;20035;-57
2022/07/16 02:35:48;;;;;;;13.07;3.72;;;;;;;11.53;71.89;99849.97;5117002;27;20477;-57
2022/07/16 02:38:13;;;;;;;12.18;4.50;;;;;;;11.42;72.13;99849.75;5119489;27;20027;-57
2022/07/16 02:40:40;;;;;;;10.38;4.05;;;;;;;11.69;71.90;99851.97;5119285;27;20027;-58
2022/07/16 02:43:06;;;;;;;11.18;4.57;;;;;;;11.79;71.45;99857.56;5125572;27;20027;-57
2022/07/16 02:45:32;;;;;;;13.35;3.95;;;;;;;11.65;70.80;99848.91;5119462;27;20039;-57
2022/07/16 02:47:58;;;;;;;12.50;4.57;;;;;;;11.61;71.05;99849.66;5102524;27;20068;-58
2022/07/16 02:50:24;;;;;;;10.95;4.25;;;;;;;11.48;71.70;99853.34;5102333;28;20047;-57
2022/07/16 02:52:49;;;;;;;10.68;3.83;;;;;;;11.48;71.91;99857.91;5118567;27;20371;-57
2022/07/16 02:55:15;;;;;;;12.05;4.45;;;;;;;11.29;72.15;99865.25;5114651;27;20538;-58
2022/07/16 02:57:40;;;;;;;18.50;5.97;;;;;;;11.08;72.61;99864.72;5117175;27;20023;-57
2022/07/16 03:00:07;;;;;;;12.85;4.88;;;;;;;10.87;74.06;99862.59;5121591;27;20271;-58
2022/07/16 03:02:32;;;;;;;13.00;4.65;;;;;;;10.82;74.45;99859.78;5120710;27;20098;-58
2022/07/16 03:04:58;;;;;;;10.43;4.28;;;;;;;10.80;75.20;99865.38;5121008;27;20165;-58
2022/07/16 03:07:23;;;;;;;9.73;4.47;;;;;;;10.87;74.71;99874.13;5119832;27;20530;-57
2022/07/16 03:09:49;;;;;;;12.60;4.55;;;;;;;10.84;75.43;99869.25;5117495;27;20024;-57
2022/07/16 03:12:14;;;;;;;11.63;4.30;;;;;;;10.90;75.49;99870.19;5119418;27;20478;-58
2022/07/16 03:14:40;;;;;;;13.93;4.82;;;;;;;10.81;74.60;99875.06;5101037;28;20019;-57
2022/07/16 03:17:05;;;;;;;12.80;4.45;;;;;;;10.87;74.60;99879.50;5083316;27;20066;-57
2022/07/16 03:19:30;;;;;;;7.32;4.00;;;;;;;10.78;75.53;99883.53;5123314;27;20064;-57
2022/07/16 03:21:56;;;;;;;13.27;4.50;;;;;;;10.85;74.78;99881.59;5119117;27;20027;-57
2022/07/16 03:24:21;;;;;;;6.22;4.65;;;;;;;10.80;75.73;99884.13;5125974;27;20027;-57
2022/07/16 03:26:47;;;;;;;12.82;4.65;;;;;;;10.89;74.95;99884.66;5123092;27;20076;-57
2022/07/16 03:29:12;;;;;;;12.20;4.20;;;;;;;10.86;75.54;99885.91;5103743;28;20027;-57
2022/07/16 03:31:38;;;;;;;13.07;4.28;;;;;;;10.75;75.55;99884.00;5118852;27;20058;-57
2022/07/16 03:34:03;;;;;;;12.60;4.88;;;;;;;10.56;76.25;99894.78;5100457;27;20107;-57
2022/07/16 03:36:28;;;;;;;12.48;5.05;;;;;;;10.32;77.35;99893.81;5117204;27;20097;-57
2022/07/16 03:39:06;;;;;;;9.38;4.90;;;;;;;10.21;78.34;99899.06;5119013;27;20023;-57
2022/07/16 03:41:33;;;;;;;12.68;5.28;;;;;;;10.02;79.23;99909.78;5100075;27;20019;-57
2022/07/16 03:43:59;;;;;;;10.27;5.30;;;;;;;10.01;79.71;99900.13;5117417;27;20068;-58
2022/07/16 03:46:24;;;;;;;11.25;5.25;;;;;;;10.27;78.93;99896.31;5117746;27;20545;-57
2022/07/16 03:48:50;;;;;;;10.15;4.55;;;;;;;10.75;76.89;99902.78;5118604;27;20035;-56
2022/07/16 03:51:15;;;;;;;11.23;4.78;;;;;;;10.86;75.09;99899.34;5116948;27;20109;-57
2022/07/16 03:53:41;;;;;;;16.48;5.07;;;;;;;11.02;75.65;99901.34;5105108;27;20031;-57
2022/07/16 03:56:06;;;;;;;10.68;4.70;;;;;;;10.96;75.29;99904.16;5121983;27;20023;-57
2022/07/16 03:58:32;;;;;;;11.48;4.80;;;;;;;11.31;74.17;99904.22;5098960;27;20569;-57
2022/07/16 04:00:57;;;;;;;15.60;4.70;;;;;;;11.52;73.09;99902.84;5101510;27;20023;-57
2022/07/16 04:03:23;;;;;;;13.70;4.38;;;;;;;11.85;71.93;99899.59;5094866;27;20035;-57
2022/07/16 04:05:48;;;;;;;15.40;4.32;;;;;;;12.04;71.22;99894.13;5115448;27;20120;-57
2022/07/16 04:08:14;;;;;;;11.73;4.10;;;;;;;11.99;70.98;99889.44;5099232;27;20028;-57
2022/07/16 04:10:39;;;;;;;10.05;4.40;;;;;;;12.01;70.98;99881.97;5105636;27;20496;-57
2022/07/16 04:13:05;;;;;;;16.58;4.53;;;;;;;11.88;71.30;99879.53;5112315;27;20035;-57
2022/07/16 04:15:30;;;;;;;10.00;4.47;;;;;;;13.05;67.63;99885.59;5120835;27;20089;-57
2022/07/16 04:17:56;;;;;;;10.82;3.88;;;;;;;14.97;61.22;99886.91;5099205;27;20027;-58
2022/07/16 04:20:21;;;;;;;10.25;4.10;;;;;;;14.95;59.61;99891.72;5116962;27;20020;-57
2022/07/16 04:22:46;;;;;;;9.43;4.03;;;;;;;15.05;59.57;99899.94;5116899;27;20363;-58
2022/07/16 04:25:15;;;;;;;11.73;3.90;;;;;;;15.90;56.99;99897.38;5101689;28;20106;-58
2022/07/16 04:27:43;;;;;;;9.90;3.83;;;;;;;16.15;55.31;99894.84;5113624;27;20015;-58
2022/07/16 04:30:09;;;;;;;8.10;3.53;;;;;;;16.44;55.69;99899.81;5116142;27;20340;-58
2022/07/16 04:32:35;;;;;;;7.80;3.20;;;;;;;17.57;51.49;99903.56;5120103;28;20027;-58
2022/07/16 04:35:01;;;;;;;7.97;3.67;;;;;;;17.99;50.77;99907.03;5097279;28;20126;-58
2022/07/16 04:37:26;;;;;;;10.35;3.15;;;;;;;18.35;49.92;99910.47;5100282;28;20106;-58
2022/07/16 04:39:52;;;;;;;7.63;3.08;;;;;;;18.72;49.82;99914.63;5079064;28;20546;-58
2022/07/16 04:42:17;;;;;;;7.20;2.80;;;;;;;18.62;49.96;99912.81;5116595;28;20411;-58
2022/07/16 04:44:43;;;;;;;6.95;2.70;;;;;;;19.43;47.60;99918.00;5122781;28;20403;-58
2022/07/16 04:47:08;;;;;;;6.25;2.90;;;;;;;17.49;52.90;99914.13;5113763;28;20034;-58
2022/07/16 04:49:33;;;;;;;5.65;2.63;;;;;;;17.28;53.70;99913.31;5115585;28;20031;-58
2022/07/16 04:51:59;;;;;;;8.57;2.83;;;;;;;15.93;57.63;99913.09;5120555;28;20032;-57
2022/07/16 04:54:24;;;;;;;8.43;2.53;;;;;;;17.60;53.29;99921.19;5114477;28;20023;-57
2022/07/16 04:56:50;;;;;;;7.70;2.60;;;;;;;16.40;55.76;99917.69;5118786;28;20023;-57
2022/07/16 04:59:15;;;;;;;11.02;3.25;;;;;;;17.57;53.13;99922.53;5092027;28;20028;-57
2022/07/16 05:01:40;;;;;;;7.63;2.80;;;;;;;18.90;49.69;99926.81;5121526;27;20019;-55
2022/07/16 05:04:06;;;;;;;11.55;2.88;;;;;;;19.96;47.58;99932.50;5117550;27;20108;-57
2022/07/16 05:06:31;;;;;;;7.47;2.60;;;;;;;17.26;53.14;99932.53;5120649;27;20035;-58
2022/07/16 05:08:57;;;;;;;4.72;2.55;;;;;;;16.69;56.63;99925.34;5117049;27;20023;-57
2022/07/16 05:11:22;;;;;;;8.95;2.80;;;;;;;15.07;60.91;99927.50;5119570;27;20023;-57
2022/07/16 05:13:48;;;;;;;9.02;2.85;;;;;;;15.22;61.13;99916.84;5124763;27;20066;-57
2022/07/16 05:16:13;;;;;;;8.70;2.92;;;;;;;15.20;60.89;99910.91;5118565;27;20023;-57
2022/07/16 05:18:39;;;;;;;6.45;2.70;;;;;;;15.62;60.12;99929.06;5119975;27;20393;-57
2022/07/16 05:21:04;;;;;;;6.22;2.58;;;;;;;15.67;60.39;99929.09;5124897;27;20019;-57
2022/07/16 05:23:30;;;;;;;7.00;2.70;;;;;;;15.82;59.96;99927.59;5116161;27;20023;-57
2022/07/16 05:25:55;;;;;;;8.40;2.60;;;;;;;18.13;53.01;99937.13;5118829;27;20031;-57
2022/07/16 05:28:20;;;;;;;7.72;2.63;;;;;;;19.04;50.55;99935.94;5126134;27;20023;-58
2022/07/16 05:30:46;;;;;;;7.53;2.85;;;;;;;19.37;50.01;99942.53;5121631;27;20031;-60
2022/07/16 05:33:11;;;;;;;5.53;2.40;;;;;;;18.26;51.80;99937.34;5128362;27;20034;-58
2022/07/16 05:35:37;;;;;;;10.70;2.75;;;;;;;16.67;57.03;99941.03;5115833;27;20501;-58
2022/07/16 05:38:02;;;;;;;6.53;2.65;;;;;;;15.81;59.75;99931.41;5105535;27;20034;-57
2022/07/16 05:40:27;;;;;;;7.35;2.50;;;;;;;15.53;62.76;99938.72;5117457;27;20016;-57
2022/07/16 05:42:53;;;;;;;8.80;2.63;;;;;;;15.58;61.85;99936.06;5119077;27;20050;-57
2022/07/16 05:45:18;;;;;;;5.22;2.50;;;;;;;16.13;61.73;99940.25;5117425;27;20036;-57
2022/07/16 05:47:44;;;;;;;5.18;2.65;;;;;;;15.40;63.29;99941.84;5122915;27;20027;-57
2022/07/16 05:50:09;;;;;;;11.63;2.97;;;;;;;15.55;62.96;99936.59;5118955;27;20388;-58
2022/07/16 05:52:35;;;;;;;7.53;2.50;;;;;;;15.68;62.74;99941.53;5106046;28;20412;-57
2022/07/16 05:55:00;;;;;;;10.05;2.63;;;;;;;15.70;63.40;99939.44;5105643;27;20035;-57
2022/07/16 05:57:26;;;;;;;7.75;3.13;;;;;;;15.00;66.12;99946.59;5097265;28;20355;-57
2022/07/16 05:59:51;;;;;;;6.68;3.00;;;;;;;15.17;63.95;99946.50;5100623;28;20113;-57
2022/07/16 06:02:17;;;;;;;8.43;2.95;;;;;;;15.32;64.01;99951.22;5099903;28;20024;-57
2022/07/16 06:04:42;;;;;;;7.78;3.03;;;;;;;14.80;66.00;99947.19;5116653;27;20054;-58
2022/07/16 06:07:08;;;;;;;6.40;2.92;;;;;;;15.23;64.19;99950.06;5119825;27;20031;-58
2022/07/16 06:09:33;;;;;;;8.70;2.80;;;;;;;15.48;63.76;99950.28;5106870;28;20019;-57
2022/07/16 06:11:58;;;;;;;5.45;2.60;;;;;;;15.63;63.55;99954.22;5097900;28;20035;-57
2022/07/16 06:14:25;;;;;;;8.52;2.70;;;;;;;15.82;61.75;99963.56;5121672;27;20016;-57
2022/07/16 06:16:50;;;;;;;8.93;3.05;;;;;;;15.27;64.01;99957.38;5099117;27;20032;-57
2022/07/16 06:19:16;;;;;;;7.53;2.92;;;;;;;15.07;64.57;99959.88;5117832;27;20057;-57
2022/07/16 06:21:42;;;;;;;10.05;3.67;;;;;;;15.21;64.42;99961.13;5121619;27;20019;-57
2022/07/16 06:24:07;;;;;;;7.07;2.90;;;;;;;15.07;65.20;99957.19;5103642;27;20091;-57
2022/07/16 06:26:33;;;;;;;5.80;3.10;;;;;;;15.79;63.35;99958.66;5122138;27;20036;-57
2022/07/16 06:28:58;;;;;;;7.10;3.05;;;;;;;18.22;56.00;99955.28;5121872;27;20039;-58
2022/07/16 06:31:24;;;;;;;9.23;2.83;;;;;;;21.78;47.37;99966.09;5115026;27;20024;-58
2022/07/16 06:33:49;;;;;;;7.00;2.58;;;;;;;23.51;42.21;99974.63;5123965;27;20028;-57
2022/07/16 06:36:14;;;;;;;11.98;2.83;;;;;;;25.16;39.37;99967.97;5103652;27;20023;-58
2022/07/16 06:38:40;;;;;;;7.22;2.58;;;;;;;26.99;36.09;99969.38;5096447;28;20023;-58
2022/07/16 06:41:05;;;;;;;9.35;2.60;;;;;;;24.82;39.30;99973.38;5100918;28;20031;-58
2022/07/16 06:43:31;;;;;;;7.70;2.28;;;;;;;24.10;41.06;99975.34;5104036;27;20056;-57
2022/07/16 06:45:56;;;;;;;5.40;2.40;;;;;;;22.89;43.59;99977.91;5108834;27;20023;-58
2022/07/16 06:48:22;;;;;;;10.70;2.40;;;;;;;20.72;48.21;99970.91;5083403;27;20027;-57
2022/07/16 06:50:48;;;;;;;7.70;2.50;;;;;;;21.28;46.90;99975.56;5119629;27;20035;-58
2022/07/16 06:53:13;;;;;;;7.95;2.75;;;;;;;24.60;40.66;99966.84;5118040;27;20110;-58
2022/07/16 06:55:38;;;;;;;6.60;2.42;;;;;;;24.58;39.82;99969.09;5100121;27;20023;-57
2022/07/16 06:58:04;;;;;;;7.32;2.40;;;;;;;25.39;38.88;99971.34;5122985;27;20026;-57
2022/07/16 07:00:29;;;;;;;10.85;2.50;;;;;;;26.51;37.08;99976.06;5124987;27;20024;-56
2022/07/16 07:02:55;;;;;;;5.15;2.53;;;;;;;27.03;35.92;99975.78;5100296;28;20473;-56
2022/07/16 07:05:20;;;;;;;9.10;2.63;;;;;;;27.17;35.20;99970.84;5119130;27;20035;-56
2022/07/16 07:07:46;;;;;;;6.45;2.25;;;;;;;24.32;40.31;99978.03;5119535;27;20377;-56
2022/07/16 07:10:11;;;;;;;8.85;2.42;;;;;;;23.82;41.55;99978.25;5114958;27;20043;-56
2022/07/16 07:12:36;;;;;;;6.53;2.30;;;;;;;23.53;41.56;99972.38;5116375;27;20023;-56
2022/07/16 07:15:03;;;;;;;5.15;2.20;;;;;;;24.06;40.56;99979.81;5117984;27;20024;-57
2022/07/16 07:17:29;;;;;;;10.40;2.95;;;;;;;23.02;42.17;99983.38;5113895;27;20026;-56
2022/07/16 07:19:54;;;;;;;6.85;2.20;;;;;;;21.13;46.37;99974.97;5118027;27;20028;-57
2022/07/16 07:22:20;;;;;;;7.20;2.53;;;;;;;21.28;46.90;99978.28;5119180;27;20028;-56
2022/07/16 07:24:45;;;;;;;8.18;2.58;;;;;;;22.45;43.85;99984.81;5112893;27;20023;-56
2022/07/16 07:27:11;;;;;;;6.57;2.35;;;;;;;23.09;42.12;99984.88;5115484;27;20381;-56
2022/07/16 07:29:37;;;;;;;4.22;2.33;;;;;;;22.36;43.88;99974.59;5121731;27;20015;-56
2022/07/16 07:32:03;;;;;;;9.82;3.13;;;;;;;22.14;44.49;99972.53;5115461;27;20053;-57
2022/07/16 07:34:29;;;;;;;8.35;2.90;;;;;;;22.24;43.21;99970.75;5111214;27;20016;-56
2022/07/16 07:36:55;;;;;;;7.15;2.67;;;;;;;21.67;44.25;99974.44;5109683;27;20038;-57
2022/07/16 07:39:20;;;;;;;11.40;2.60;;;;;;;23.07;43.06;99973.47;5121685;27;20027;-56
2022/07/16 07:42:03;;;;;;;6.75;2.55;;;;;;;24.90;38.92;99970.63;5118673;27;20504;-58
2022/07/16 07:44:29;;;;;;;6.05;2.38;;;;;;;23.01;41.66;99973.56;5102226;27;20031;-56
2022/07/16 07:46:54;;;;;;;11.40;2.50;;;;;;;25.54;36.73;99972.78;5106363;27;20913;-57
2022/07/16 07:49:20;;;;;;;8.23;2.40;;;;;;;26.34;35.19;99980.53;5113990;27;20024;-57
2022/07/16 07:52:13;;;;;;;6.32;2.65;;;;;;;26.12;35.96;99976.06;5116142;27;20098;-58
2022/07/16 07:54:39;;;;;;;6.07;2.33;;;;;;;27.83;32.72;99975.66;5121235;27;20046;-57
2022/07/16 07:57:05;;;;;;;8.18;2.75;;;;;;;27.10;33.25;99976.06;5103170;27;20700;-56
2022/07/16 07:59:30;;;;;;;8.82;2.70;;;;;;;27.06;34.33;99972.38;5115440;27;20023;-57
2022/07/16 08:01:56;;;;;;;8.00;2.15;;;;;;;27.15;34.48;99972.31;5116933;27;20050;-58
2022/07/16 08:04:21;;;;;;;6.85;2.40;;;;;;;26.68;35.09;99971.34;5122373;27;20101;-58
2022/07/16 08:06:47;;;;;;;9.20;2.85;;;;;;;27.26;33.17;99974.34;5122342;27;20031;-57
2022/07/16 08:09:13;;;;;;;13.85;3.20;;;;;;;25.39;36.32;99968.59;5101255;28;20054;-57
2022/07/16 08:11:39;;;;;;;15.75;2.97;;;;;;;25.20;36.78;99975.53;5124767;27;20026;-58
2022/07/16 08:14:04;;;;;;;13.80;2.97;;;;;;;24.40;37.74;99972.91;5119929;27;20019;-57
2022/07/16 08:16:30;;;;;;;8.68;2.80;;;;;;;24.14;37.89;99970.84;5117079;27;20020;-57
2022/07/16 08:18:56;;;;;;;10.77;2.75;;;;;;;25.01;36.34;99965.66;5101396;27;20032;-57
2022/07/16 08:21:21;;;;;;;15.02;3.00;;;;;;;24.56;37.25;99965.88;5095642;28;20240;-57
2022/07/16 08:26:31;;;;;;;12.57;2.92;;;;;;;23.31;38.47;99971.25;5117358;27;20541;-57
2022/07/16 08:28:57;;;;;;;11.38;3.05;;;;;;;23.31;38.30;99970.44;5115957;27;20114;-57
2022/07/16 08:31:23;;;;;;;7.38;2.88;;;;;;;23.84;38.33;99967.81;5118046;27;20039;-57
2022/07/16 08:33:48;;;;;;;8.57;2.78;;;;;;;25.35;35.77;99961.34;5109858;28;20028;-57
2022/07/16 08:36:14;;;;;;;8.75;2.80;;;;;;;25.28;36.46;99963.75;5120379;27;20027;-57
2022/07/16 08:38:39;;;;;;;12.07;2.63;;;;;;;25.89;35.52;99969.22;5116336;28;20027;-56
2022/07/16 08:41:05;;;;;;;9.90;2.72;;;;;;;25.65;36.17;99975.19;5081397;28;20560;-57
2022/07/16 08:43:31;;;;;;;17.42;3.38;;;;;;;24.87;36.84;99970.47;5110113;28;20122;-57
2022/07/16 08:45:56;;;;;;;12.05;2.70;;;;;;;26.00;34.67;99979.50;5114296;28;20453;-57
2022/07/16 08:48:23;;;;;;;13.38;3.33;;;;;;;26.24;35.27;99973.44;5123708;28;20035;-57
2022/07/16 08:50:49;;;;;;;13.40;3.13;;;;;;;25.92;34.94;99974.03;5080743;28;20051;-58
2022/07/16 08:53:14;;;;;;;10.30;2.90;;;;;;;25.60;36.11;99973.41;5083124;28;20039;-57
2022/07/16 08:55:40;;;;;;;7.38;3.00;;;;;;;26.84;33.87;99973.50;5081879;28;20023;-57
2022/07/16 08:58:08;;;;;;;12.05;3.00;;;;;;;26.64;33.41;99969.59;5121640;28;20031;-56
2022/07/16 09:00:34;;;;;;;8.30;2.88;;;;;;;25.33;35.09;99977.31;5074987;28;20023;-57
2022/07/16 09:02:59;;;;;;;9.55;2.80;;;;;;;26.45;34.51;99968.00;5126910;28;20477;-55
2022/07/16 09:05:26;;;;;;;6.85;2.70;;;;;;;27.62;33.38;99981.16;5118646;28;20019;-56
2022/07/16 09:07:53;;;;;;;8.98;3.00;;;;;;;27.42;32.97;99982.00;5094099;28;20079;-57
2022/07/16 09:10:19;;;;;;;11.00;3.15;;;;;;;25.63;35.03;99974.72;5108045;28;20031;-56
2022/07/16 09:12:47;;;;;;;7.00;2.55;;;;;;;25.70;34.90;99978.56;5115886;28;20028;-57
2022/07/16 09:15:24;;;;;;;9.45;2.70;;;;;;;25.28;35.44;99980.22;5096464;28;20082;-55
2022/07/16 09:18:24;;;;;;;9.77;3.25;;;;;;;26.45;34.64;99984.50;5115615;28;20036;-55
2022/07/16 09:20:56;;;;;;;10.05;2.85;;;;;;;26.65;35.22;99990.44;5116643;28;20042;-56
2022/07/16 09:23:38;;;;;;;10.25;3.10;;;;;;;24.35;38.59;99987.53;5119917;28;20027;-55
2022/07/16 09:26:08;;;;;;;12.00;3.33;;;;;;;24.59;39.29;99981.69;5100223;28;20110;-56
2022/07/16 09:28:45;;;;;;;7.20;3.05;;;;;;;26.17;36.61;99977.84;5115711;28;20023;-57
2022/07/16 09:31:11;;;;;;;6.93;2.72;;;;;;;25.91;37.52;99980.66;5113547;28;20020;-56
2022/07/16 09:33:37;;;;;;;11.52;3.30;;;;;;;25.56;37.95;99984.25;5113450;28;20020;-56
2022/07/16 09:36:10;;;;;;;23.73;3.65;;;;;;;24.85;39.39;99983.69;5114426;28;20031;-55
2022/07/16 09:38:46;;;;;;;10.52;3.35;;;;;;;25.83;39.33;99987.75;5115644;28;20038;-56
2022/07/16 09:41:14;;;;;;;16.00;3.88;;;;;;;24.54;40.64;99990.88;5114972;28;20034;-57
2022/07/16 09:43:41;;;;;;;10.73;3.47;;;;;;;26.10;39.60;99983.03;5114575;28;20085;-56
2022/07/16 09:46:07;;;;;;;15.60;4.22;;;;;;;26.48;38.92;99988.53;5120605;28;20464;-56
2022/07/16 09:48:35;;;;;;;9.85;3.38;;;;;;;26.75;38.68;99987.28;5119343;27;20031;-56
2022/07/16 09:51:21;;;;;;;12.45;4.22;;;;;;;25.78;40.91;99988.72;5102991;27;20034;-56
2022/07/16 09:53:48;;;;;;;17.85;5.07;;;;;;;26.17;40.12;99988.84;5089696;27;20089;-56
2022/07/16 09:56:19;;;;;;;20.42;4.53;;;;;;;26.38;40.19;99995.19;5123238;27;20038;-58
2022/07/16 09:58:47;;;;;;;14.68;4.47;;;;;;;26.75;39.85;100003.78;5098990;28;20116;-56
2022/07/16 10:01:12;;;;;;;17.50;4.40;;;;;;;26.34;40.66;99979.72;5096396;27;20038;-57
2022/07/16 10:03:38;;;;;;;17.63;4.75;;;;;;;26.27;41.00;99996.72;5120095;27;20035;-55
2022/07/16 10:06:03;;;;;;;28.88;5.00;;;;;;;25.10;43.86;100007.59;5120938;27;20027;-57
2022/07/16 10:08:29;;;;;;;9.63;3.60;;;;;;;26.55;40.89;100004.53;5103017;27;20024;-58
2022/07/16 10:10:55;;;;;;;11.63;4.60;;;;;;;25.67;42.48;100016.84;5104442;27;20465;-57
2022/07/16 10:13:24;;;;;;;16.83;5.10;;;;;;;24.85;43.38;100016.59;5119509;27;20046;-57
2022/07/16 10:15:49;;;;;;;11.77;4.32;;;;;;;25.10;42.91;100023.25;5097912;27;20031;-55
2022/07/16 10:18:44;;;;;;;22.65;4.38;;;;;;;24.65;43.02;100020.72;5122045;27;20035;-55
2022/07/16 10:21:20;;;;;;;16.83;4.40;;;;;;;24.77;43.65;100014.63;5115243;27;20055;-56
2022/07/16 10:24:05;;;;;;;16.00;3.85;;;;;;;24.53;43.56;100022.13;5117653;27;20055;-56
2022/07/16 10:26:32;;;;;;;14.93;3.50;;;;;;;25.97;40.95;100017.81;5121902;27;20043;-56
2022/07/16 10:28:57;;;;;;;20.27;4.38;;;;;;;25.03;42.40;100028.41;5101625;27;20028;-56
2022/07/16 10:31:38;;;;;;;10.85;3.67;;;;;;;25.88;40.73;100028.78;5097942;27;20050;-56
2022/07/16 10:34:12;;;;;;;8.60;3.45;;;;;;;24.91;42.94;100026.28;5118930;27;20534;-56
2022/07/16 10:36:56;;;;;;;16.45;3.88;;;;;;;24.48;43.09;100032.41;5118262;27;20051;-57
2022/07/16 10:39:23;;;;;;;14.25;3.78;;;;;;;25.73;41.43;100032.00;5119866;27;20212;-57
2022/07/16 10:41:50;;;;;;;12.43;4.13;;;;;;;25.36;41.47;100031.53;5122024;27;20359;-56
2022/07/16 10:44:15;;;;;;;18.20;4.57;;;;;;;24.72;43.76;100034.78;5111932;27;20046;-55
2022/07/16 10:46:52;;;;;;;14.57;5.55;;;;;;;25.43;42.73;100034.59;5117136;27;20470;-57
2022/07/16 10:49:17;;;;;;;12.25;5.18;;;;;;;25.79;41.46;100038.97;5111201;27;20051;-56
2022/07/16 10:52:03;;;;;;;13.43;4.60;;;;;;;24.74;43.55;100038.00;5121272;27;20030;-56
2022/07/16 10:54:35;;;;;;;14.93;4.30;;;;;;;24.35;43.40;100036.03;5103875;27;20394;-56
2022/07/16 10:57:01;;;;;;;12.85;4.20;;;;;;;25.55;40.89;100032.03;5112904;27;20031;-57
2022/07/16 10:59:29;;;;;;;14.57;3.75;;;;;;;25.63;41.01;100024.13;5110967;27;20027;-56
2022/07/16 11:02:00;;;;;;;10.82;4.35;;;;;;;25.72;41.08;100038.66;5115268;27;20054;-56
2022/07/16 11:04:34;;;;;;;12.57;4.10;;;;;;;25.63;40.02;100040.59;5119432;27;20278;-58
2022/07/16 11:07:00;;;;;;;12.57;4.10;;;;;;;25.86;39.60;100033.81;5119469;27;20046;-57
2022/07/16 11:09:32;;;;;;;10.50;3.70;;;;;;;26.09;39.58;100037.16;5122721;27;20558;-55
2022/07/16 11:12:18;;;;;;;11.48;4.10;;;;;;;25.50;40.38;100043.16;5120934;27;20027;-61
2022/07/16 11:14:45;;;;;;;8.25;3.90;;;;;;;25.92;39.17;100027.03;5116566;27;20411;-55
2022/07/16 11:17:10;;;;;;;10.60;3.75;;;;;;;25.28;40.98;100022.16;5095252;28;20032;-56
2022/07/16 11:19:41;;;;;;;9.77;3.60;;;;;;;25.33;40.76;100022.00;5121329;27;20066;-55
2022/07/16 11:22:06;;;;;;;12.23;4.20;;;;;;;24.62;42.27;100035.88;5112013;27;20047;-56
2022/07/16 11:24:32;;;;;;;7.82;3.70;;;;;;;25.43;40.51;100034.59;5119435;27;20031;-56
2022/07/16 11:26:58;;;;;;;8.55;3.80;;;;;;;25.17;41.10;100027.16;5117609;27;20068;-56
2022/07/16 11:29:24;;;;;;;13.43;4.00;;;;;;;25.47;40.74;100032.84;5090630;27;20094;-54
2022/07/16 11:31:50;;;;;;;8.32;3.72;;;;;;;26.04;38.39;100029.91;5111694;27;20030;-55